sensor_id;sensor_type;location;lat;lon;timestamp;temperature;humidity
14405;DHT22;14983;50.866;4.304;2022-07-23T00:00:58;17.20;99.90
14405;DHT22;14983;50.866;4.304;2022-07-23T00:03:25;17.10;99.90
14405;DHT22;14983;50.866;4.304;2022-07-23T00:05:52;17.20;99.90
14405;DHT22;14983;50.866;4.304;2022-07-23T00:08:19;17.20;99.90
14405;DHT22;14983;50.866;4.304;2022-07-23T00:10:48;16.90;99.90
14405;DHT22;14983;50.866;4.304;2022-07-23T00:13:15;17.30;99.90
14405;DHT22;14983;50.866;4.304;2022-07-23T00:15:42;17.30;99.90
14405;DHT22;14983;50.866;4.304;2022-07-23T00:18:09;17.30;99.90
14405;DHT22;14983;50.866;4.304;2022-07-23T00:20:37;17.20;99.90
14405;DHT22;14983;50.866;4.304;2022-07-23T00:23:04;17.20;99.90
14405;DHT22;14983;50.866;4.304;2022-07-23T00:25:31;17.10;99.90
14405;DHT22;14983;50.866;4.304;2022-07-23T00:28:01;17.80;99.90
14405;DHT22;14983;50.866;4.304;2022-07-23T00:30:28;17.10;99.90
14405;DHT22;14983;50.866;4.304;2022-07-23T00:33:03;17.10;99.90
14405;DHT22;14983;50.866;4.304;2022-07-23T00:35:38;17.00;99.90
14405;DHT22;14983;50.866;4.304;2022-07-23T00:38:07;17.00;99.90
14405;DHT22;14983;50.866;4.304;2022-07-23T00:40:36;17.10;99.90
14405;DHT22;14983;50.866;4.304;2022-07-23T00:43:20;17.00;99.90
14405;DHT22;14983;50.866;4.304;2022-07-23T00:45:49;17.00;99.90
14405;DHT22;14983;50.866;4.304;2022-07-23T00:48:20;17.00;99.90
14405;DHT22;14983;50.866;4.304;2022-07-23T00:50:47;17.10;99.90
14405;DHT22;14983;50.866;4.304;2022-07-23T00:53:15;17.00;99.90
14405;DHT22;14983;50.866;4.304;2022-07-23T00:55:43;17.00;99.90
14405;DHT22;14983;50.866;4.304;2022-07-23T00:58:18;16.90;99.90
14405;DHT22;14983;50.866;4.304;2022-07-23T01:00:47;16.80;99.90
14405;DHT22;14983;50.866;4.304;2022-07-23T01:03:14;16.80;99.90
14405;DHT22;14983;50.866;4.304;2022-07-23T01:05:47;16.80;99.90
14405;DHT22;14983;50.866;4.304;2022-07-23T01:08:14;17.00;99.90
14405;DHT22;14983;50.866;4.304;2022-07-23T01:10:42;16.60;99.90
14405;DHT22;14983;50.866;4.304;2022-07-23T01:13:10;16.50;99.90
14405;DHT22;14983;50.866;4.304;2022-07-23T01:15:43;16.70;99.90
14405;DHT22;14983;50.866;4.304;2022-07-23T01:18:10;16.80;99.90
14405;DHT22;14983;50.866;4.304;2022-07-23T01:20:40;16.70;99.90
14405;DHT22;14983;50.866;4.304;2022-07-23T01:23:15;16.70;99.90
14405;DHT22;14983;50.866;4.304;2022-07-23T01:25:48;16.60;99.90
14405;DHT22;14983;50.866;4.304;2022-07-23T01:28:17;16.60;99.90
14405;DHT22;14983;50.866;4.304;2022-07-23T01:30:46;16.50;99.90
14405;DHT22;14983;50.866;4.304;2022-07-23T01:33:14;16.50;99.90
14405;DHT22;14983;50.866;4.304;2022-07-23T01:35:41;16.60;99.90
14405;DHT22;14983;50.866;4.304;2022-07-23T01:38:08;16.50;99.90
14405;DHT22;14983;50.866;4.304;2022-07-23T01:40:41;16.50;99.90
14405;DHT22;14983;50.866;4.304;2022-07-23T01:43:09;16.50;99.90
14405;DHT22;14983;50.866;4.304;2022-07-23T01:45:37;16.50;99.90
14405;DHT22;14983;50.866;4.304;2022-07-23T01:48:06;16.40;99.90
14405;DHT22;14983;50.866;4.304;2022-07-23T01:50:37;16.30;99.90
14405;DHT22;14983;50.866;4.304;2022-07-23T01:53:05;16.80;99.90
14405;DHT22;14983;50.866;4.304;2022-07-23T01:55:37;16.50;99.90
14405;DHT22;14983;50.866;4.304;2022-07-23T01:58:16;16.50;99.90
14405;DHT22;14983;50.866;4.304;2022-07-23T02:00:43;16.50;99.90
14405;DHT22;14983;50.866;4.304;2022-07-23T02:03:10;16.50;99.90
14405;DHT22;14983;50.866;4.304;2022-07-23T02:05:40;16.40;99.90
14405;DHT22;14983;50.866;4.304;2022-07-23T02:08:07;16.40;99.90
14405;DHT22;14983;50.866;4.304;2022-07-23T02:10:35;16.40;99.90
14405;DHT22;14983;50.866;4.304;2022-07-23T02:13:09;16.50;99.90
14405;DHT22;14983;50.866;4.304;2022-07-23T02:15:42;16.50;99.90
14405;DHT22;14983;50.866;4.304;2022-07-23T02:18:09;16.50;99.90
14405;DHT22;14983;50.866;4.304;2022-07-23T02:20:38;16.50;99.90
14405;DHT22;14983;50.866;4.304;2022-07-23T02:23:06;16.40;99.90
14405;DHT22;14983;50.866;4.304;2022-07-23T02:25:34;16.50;99.90
14405;DHT22;14983;50.866;4.304;2022-07-23T02:28:01;16.50;99.90
14405;DHT22;14983;50.866;4.304;2022-07-23T02:30:30;16.40;99.90
14405;DHT22;14983;50.866;4.304;2022-07-23T02:32:57;16.40;99.90
14405;DHT22;14983;50.866;4.304;2022-07-23T02:35:30;16.40;99.90
14405;DHT22;14983;50.866;4.304;2022-07-23T02:38:03;16.40;99.90
14405;DHT22;14983;50.866;4.304;2022-07-23T02:40:44;16.40;99.90
14405;DHT22;14983;50.866;4.304;2022-07-23T02:43:16;16.30;99.90
14405;DHT22;14983;50.866;4.304;2022-07-23T02:45:55;16.20;99.90
14405;DHT22;14983;50.866;4.304;2022-07-23T02:51:40;16.20;99.90
14405;DHT22;14983;50.866;4.304;2022-07-23T02:54:18;16.10;99.90
14405;DHT22;14983;50.866;4.304;2022-07-23T02:56:45;16.00;99.90
14405;DHT22;14983;50.866;4.304;2022-07-23T02:59:14;16.00;99.90
14405;DHT22;14983;50.866;4.304;2022-07-23T03:01:43;16.00;99.90
14405;DHT22;14983;50.866;4.304;2022-07-23T03:04:16;16.00;99.90
14405;DHT22;14983;50.866;4.304;2022-07-23T03:06:44;16.00;99.90
14405;DHT22;14983;50.866;4.304;2022-07-23T03:09:13;16.00;99.90
14405;DHT22;14983;50.866;4.304;2022-07-23T03:11:41;16.10;99.90
14405;DHT22;14983;50.866;4.304;2022-07-23T03:14:11;16.10;99.90
14405;DHT22;14983;50.866;4.304;2022-07-23T03:16:39;16.20;99.90
14405;DHT22;14983;50.866;4.304;2022-07-23T03:19:08;16.20;99.90
14405;DHT22;14983;50.866;4.304;2022-07-23T03:21:37;16.10;99.90
14405;DHT22;14983;50.866;4.304;2022-07-23T03:24:07;16.00;99.90
14405;DHT22;14983;50.866;4.304;2022-07-23T03:26:36;16.00;99.90
14405;DHT22;14983;50.866;4.304;2022-07-23T03:29:04;16.00;99.90
14405;DHT22;14983;50.866;4.304;2022-07-23T03:31:32;15.90;99.90
14405;DHT22;14983;50.866;4.304;2022-07-23T03:34:01;15.80;99.90
14405;DHT22;14983;50.866;4.304;2022-07-23T03:36:38;16.00;99.90
14405;DHT22;14983;50.866;4.304;2022-07-23T03:39:07;16.10;99.90
14405;DHT22;14983;50.866;4.304;2022-07-23T03:41:38;16.10;99.90
14405;DHT22;14983;50.866;4.304;2022-07-23T03:44:06;16.10;99.90
14405;DHT22;14983;50.866;4.304;2022-07-23T03:46:39;16.10;99.90
14405;DHT22;14983;50.866;4.304;2022-07-23T03:49:09;16.10;99.90
14405;DHT22;14983;50.866;4.304;2022-07-23T03:51:38;16.10;99.90
14405;DHT22;14983;50.866;4.304;2022-07-23T03:54:06;16.30;99.90
14405;DHT22;14983;50.866;4.304;2022-07-23T03:56:34;16.10;99.90
14405;DHT22;14983;50.866;4.304;2022-07-23T03:59:03;16.00;99.90
14405;DHT22;14983;50.866;4.304;2022-07-23T04:01:31;16.00;99.90
14405;DHT22;14983;50.866;4.304;2022-07-23T04:03:58;16.10;99.90
14405;DHT22;14983;50.866;4.304;2022-07-23T04:06:28;15.80;99.90
14405;DHT22;14983;50.866;4.304;2022-07-23T04:09:06;15.90;99.90
14405;DHT22;14983;50.866;4.304;2022-07-23T04:11:33;15.90;99.90
14405;DHT22;14983;50.866;4.304;2022-07-23T04:14:06;15.90;99.90
14405;DHT22;14983;50.866;4.304;2022-07-23T04:16:35;15.90;99.90
14405;DHT22;14983;50.866;4.304;2022-07-23T04:19:02;15.90;99.90
14405;DHT22;14983;50.866;4.304;2022-07-23T04:21:32;15.90;99.90
14405;DHT22;14983;50.866;4.304;2022-07-23T04:24:03;16.00;99.90
14405;DHT22;14983;50.866;4.304;2022-07-23T04:26:33;16.00;99.90
14405;DHT22;14983;50.866;4.304;2022-07-23T04:29:00;16.00;99.90
14405;DHT22;14983;50.866;4.304;2022-07-23T04:31:30;16.00;99.90
14405;DHT22;14983;50.866;4.304;2022-07-23T04:33:59;16.00;99.90
14405;DHT22;14983;50.866;4.304;2022-07-23T04:36:27;16.00;99.90
14405;DHT22;14983;50.866;4.304;2022-07-23T04:39:00;16.10;99.90
14405;DHT22;14983;50.866;4.304;2022-07-23T04:41:34;16.10;99.90
14405;DHT22;14983;50.866;4.304;2022-07-23T04:44:03;16.00;99.90
14405;DHT22;14983;50.866;4.304;2022-07-23T04:46:31;16.10;99.90
14405;DHT22;14983;50.866;4.304;2022-07-23T04:49:00;16.20;99.90
14405;DHT22;14983;50.866;4.304;2022-07-23T04:51:30;16.30;99.90
14405;DHT22;14983;50.866;4.304;2022-07-23T04:53:57;16.30;99.90
14405;DHT22;14983;50.866;4.304;2022-07-23T04:56:26;16.40;99.90
14405;DHT22;14983;50.866;4.304;2022-07-23T04:58:55;16.40;99.90
14405;DHT22;14983;50.866;4.304;2022-07-23T05:01:30;16.40;99.90
14405;DHT22;14983;50.866;4.304;2022-07-23T05:03:59;16.40;99.90
14405;DHT22;14983;50.866;4.304;2022-07-23T05:06:28;16.40;99.90
14405;DHT22;14983;50.866;4.304;2022-07-23T05:09:01;16.50;99.90
14405;DHT22;14983;50.866;4.304;2022-07-23T05:11:29;16.50;99.90
14405;DHT22;14983;50.866;4.304;2022-07-23T05:13:58;16.70;99.90
14405;DHT22;14983;50.866;4.304;2022-07-23T05:16:28;16.80;99.90
14405;DHT22;14983;50.866;4.304;2022-07-23T05:18:55;16.90;99.90
14405;DHT22;14983;50.866;4.304;2022-07-23T05:21:28;17.10;99.90
14405;DHT22;14983;50.866;4.304;2022-07-23T05:23:56;17.10;99.90
14405;DHT22;14983;50.866;4.304;2022-07-23T05:26:30;17.10;99.90
14405;DHT22;14983;50.866;4.304;2022-07-23T05:28:58;17.00;99.90
14405;DHT22;14983;50.866;4.304;2022-07-23T05:31:26;17.10;99.90
14405;DHT22;14983;50.866;4.304;2022-07-23T05:33:56;16.90;99.90
14405;DHT22;14983;50.866;4.304;2022-07-23T05:36:26;16.80;99.90
14405;DHT22;14983;50.866;4.304;2022-07-23T05:38:53;16.90;99.90
14405;DHT22;14983;50.866;4.304;2022-07-23T05:41:21;16.90;99.90
14405;DHT22;14983;50.866;4.304;2022-07-23T05:43:49;17.00;99.90
14405;DHT22;14983;50.866;4.304;2022-07-23T05:46:18;17.10;99.90
14405;DHT22;14983;50.866;4.304;2022-07-23T05:48:46;17.10;99.90
14405;DHT22;14983;50.866;4.304;2022-07-23T05:51:19;17.10;99.90
14405;DHT22;14983;50.866;4.304;2022-07-23T05:53:50;17.30;99.90
14405;DHT22;14983;50.866;4.304;2022-07-23T05:56:21;16.90;99.90
14405;DHT22;14983;50.866;4.304;2022-07-23T05:58:50;16.90;99.90
14405;DHT22;14983;50.866;4.304;2022-07-23T06:01:25;17.10;99.90
14405;DHT22;14983;50.866;4.304;2022-07-23T06:04:11;17.10;99.90
14405;DHT22;14983;50.866;4.304;2022-07-23T06:06:39;17.20;99.90
14405;DHT22;14983;50.866;4.304;2022-07-23T06:09:11;17.40;99.90
14405;DHT22;14983;50.866;4.304;2022-07-23T06:11:43;17.40;99.90
14405;DHT22;14983;50.866;4.304;2022-07-23T06:14:11;17.70;99.90
14405;DHT22;14983;50.866;4.304;2022-07-23T06:16:52;17.70;99.90
14405;DHT22;14983;50.866;4.304;2022-07-23T06:19:21;17.90;99.90
14405;DHT22;14983;50.866;4.304;2022-07-23T06:21:54;17.80;99.90
14405;DHT22;14983;50.866;4.304;2022-07-23T06:24:24;18.00;99.90
14405;DHT22;14983;50.866;4.304;2022-07-23T06:26:53;17.90;99.90
14405;DHT22;14983;50.866;4.304;2022-07-23T06:29:21;18.00;99.90
14405;DHT22;14983;50.866;4.304;2022-07-23T06:31:48;18.10;99.90
14405;DHT22;14983;50.866;4.304;2022-07-23T06:34:21;18.30;64.00
14405;DHT22;14983;50.866;4.304;2022-07-23T06:36:51;18.40;1.00
14405;DHT22;14983;50.866;4.304;2022-07-23T06:39:18;18.50;99.90
14405;DHT22;14983;50.866;4.304;2022-07-23T06:41:45;18.50;1.00
14405;DHT22;14983;50.866;4.304;2022-07-23T06:44:12;18.50;99.90
14405;DHT22;14983;50.866;4.304;2022-07-23T06:46:40;18.60;99.90
14405;DHT22;14983;50.866;4.304;2022-07-23T06:49:08;18.70;1.00
14405;DHT22;14983;50.866;4.304;2022-07-23T06:51:36;18.70;47.20
14405;DHT22;14983;50.866;4.304;2022-07-23T06:54:05;18.90;99.90
14405;DHT22;14983;50.866;4.304;2022-07-23T06:56:32;18.90;99.90
14405;DHT22;14983;50.866;4.304;2022-07-23T06:59:01;19.20;1.00
14405;DHT22;14983;50.866;4.304;2022-07-23T07:01:32;19.40;99.90
14405;DHT22;14983;50.866;4.304;2022-07-23T07:03:59;18.00;99.90
14405;DHT22;14983;50.866;4.304;2022-07-23T07:06:28;19.40;99.90
14405;DHT22;14983;50.866;4.304;2022-07-23T07:08:58;19.60;1.00
14405;DHT22;14983;50.866;4.304;2022-07-23T07:11:30;19.70;1.00
14405;DHT22;14983;50.866;4.304;2022-07-23T07:14:00;19.60;99.90
14405;DHT22;14983;50.866;4.304;2022-07-23T07:16:30;19.50;99.90
14405;DHT22;14983;50.866;4.304;2022-07-23T07:19:00;19.40;1.00
14405;DHT22;14983;50.866;4.304;2022-07-23T07:21:30;19.50;1.00
14405;DHT22;14983;50.866;4.304;2022-07-23T07:24:15;19.50;1.00
14405;DHT22;14983;50.866;4.304;2022-07-23T07:26:42;19.60;99.90
14405;DHT22;14983;50.866;4.304;2022-07-23T07:29:09;20.00;99.90
14405;DHT22;14983;50.866;4.304;2022-07-23T07:31:36;20.20;99.90
14405;DHT22;14983;50.866;4.304;2022-07-23T07:34:04;20.20;1.00
14405;DHT22;14983;50.866;4.304;2022-07-23T07:36:31;20.40;1.00
14405;DHT22;14983;50.866;4.304;2022-07-23T07:39:00;20.60;99.90
14405;DHT22;14983;50.866;4.304;2022-07-23T07:41:27;20.00;1.00
14405;DHT22;14983;50.866;4.304;2022-07-23T07:43:54;20.10;99.90
14405;DHT22;14983;50.866;4.304;2022-07-23T07:46:21;20.10;1.00
14405;DHT22;14983;50.866;4.304;2022-07-23T07:48:53;20.10;99.90
14405;DHT22;14983;50.866;4.304;2022-07-23T07:51:20;20.30;1.00
14405;DHT22;14983;50.866;4.304;2022-07-23T07:53:49;20.40;1.00
14405;DHT22;14983;50.866;4.304;2022-07-23T07:56:17;20.40;99.90
14405;DHT22;14983;50.866;4.304;2022-07-23T07:58:44;20.40;99.90
14405;DHT22;14983;50.866;4.304;2022-07-23T08:01:13;20.60;1.00
14405;DHT22;14983;50.866;4.304;2022-07-23T08:03:46;20.70;99.90
14405;DHT22;14983;50.866;4.304;2022-07-23T08:06:14;21.10;99.90
14405;DHT22;14983;50.866;4.304;2022-07-23T08:08:43;21.30;1.00
14405;DHT22;14983;50.866;4.304;2022-07-23T08:11:11;21.40;99.90
14405;DHT22;14983;50.866;4.304;2022-07-23T08:13:40;21.20;1.00
14405;DHT22;14983;50.866;4.304;2022-07-23T08:16:13;21.10;99.90
14405;DHT22;14983;50.866;4.304;2022-07-23T08:18:43;21.30;1.00
14405;DHT22;14983;50.866;4.304;2022-07-23T08:21:43;21.30;1.00
14405;DHT22;14983;50.866;4.304;2022-07-23T08:24:27;21.50;99.90
14405;DHT22;14983;50.866;4.304;2022-07-23T08:26:56;21.50;1.00
14405;DHT22;14983;50.866;4.304;2022-07-23T08:29:25;21.50;18.80
14405;DHT22;14983;50.866;4.304;2022-07-23T08:31:55;21.60;1.00
14405;DHT22;14983;50.866;4.304;2022-07-23T08:34:21;21.50;99.90
14405;DHT22;14983;50.866;4.304;2022-07-23T08:36:49;21.00;99.90
14405;DHT22;14983;50.866;4.304;2022-07-23T08:39:15;21.40;99.90
14405;DHT22;14983;50.866;4.304;2022-07-23T08:41:43;21.50;1.00
14405;DHT22;14983;50.866;4.304;2022-07-23T08:44:10;21.60;99.90
14405;DHT22;14983;50.866;4.304;2022-07-23T08:46:39;21.80;99.90
14405;DHT22;14983;50.866;4.304;2022-07-23T08:49:07;22.00;99.90
14405;DHT22;14983;50.866;4.304;2022-07-23T08:51:35;22.10;99.90
14405;DHT22;14983;50.866;4.304;2022-07-23T08:54:02;21.80;99.90
14405;DHT22;14983;50.866;4.304;2022-07-23T08:56:30;21.80;99.90
14405;DHT22;14983;50.866;4.304;2022-07-23T08:58:57;22.00;99.90
14405;DHT22;14983;50.866;4.304;2022-07-23T09:01:57;22.30;1.00
14405;DHT22;14983;50.866;4.304;2022-07-23T09:04:28;22.20;53.20
14405;DHT22;14983;50.866;4.304;2022-07-23T09:06:57;22.30;78.20
14405;DHT22;14983;50.866;4.304;2022-07-23T09:09:26;22.20;61.20
14405;DHT22;14983;50.866;4.304;2022-07-23T09:12:02;22.00;1.00
14405;DHT22;14983;50.866;4.304;2022-07-23T09:14:37;22.20;1.00
14405;DHT22;14983;50.866;4.304;2022-07-23T09:17:12;22.30;1.00
14405;DHT22;14983;50.866;4.304;2022-07-23T09:19:41;22.50;1.00
14405;DHT22;14983;50.866;4.304;2022-07-23T09:22:20;22.60;1.00
14405;DHT22;14983;50.866;4.304;2022-07-23T09:25:09;22.20;99.90
14405;DHT22;14983;50.866;4.304;2022-07-23T09:27:53;22.10;1.00
14405;DHT22;14983;50.866;4.304;2022-07-23T09:30:22;22.20;1.00
14405;DHT22;14983;50.866;4.304;2022-07-23T09:33:07;22.40;1.00
14405;DHT22;14983;50.866;4.304;2022-07-23T09:35:50;22.70;99.90
14405;DHT22;14983;50.866;4.304;2022-07-23T09:38:18;22.90;99.90
14405;DHT22;14983;50.866;4.304;2022-07-23T09:41:04;23.20;99.90
14405;DHT22;14983;50.866;4.304;2022-07-23T09:43:31;23.60;99.90
14405;DHT22;14983;50.866;4.304;2022-07-23T09:46:18;23.90;99.90
14405;DHT22;14983;50.866;4.304;2022-07-23T09:48:46;23.70;99.90
14405;DHT22;14983;50.866;4.304;2022-07-23T09:51:16;23.80;35.80
14405;DHT22;14983;50.866;4.304;2022-07-23T09:53:45;23.80;66.00
14405;DHT22;14983;50.866;4.304;2022-07-23T09:56:13;23.00;99.90
14405;DHT22;14983;50.866;4.304;2022-07-23T09:58:41;23.10;99.90
14405;DHT22;14983;50.866;4.304;2022-07-23T10:01:16;23.40;86.40
14405;DHT22;14983;50.866;4.304;2022-07-23T10:03:43;23.30;45.90
14405;DHT22;14983;50.866;4.304;2022-07-23T10:06:13;23.30;99.90
14405;DHT22;14983;50.866;4.304;2022-07-23T10:08:44;23.30;99.90
14405;DHT22;14983;50.866;4.304;2022-07-23T10:11:14;23.70;99.90
14405;DHT22;14983;50.866;4.304;2022-07-23T10:13:42;24.00;48.30
14405;DHT22;14983;50.866;4.304;2022-07-23T10:16:32;24.20;1.00
14405;DHT22;14983;50.866;4.304;2022-07-23T10:19:00;24.10;1.00
14405;DHT22;14983;50.866;4.304;2022-07-23T10:21:44;24.30;1.00
14405;DHT22;14983;50.866;4.304;2022-07-23T10:24:21;24.20;1.00
14405;DHT22;14983;50.866;4.304;2022-07-23T10:27:02;24.50;1.00
14405;DHT22;14983;50.866;4.304;2022-07-23T10:29:40;24.60;1.00
14405;DHT22;14983;50.866;4.304;2022-07-23T10:32:17;24.70;1.00
14405;DHT22;14983;50.866;4.304;2022-07-23T10:34:52;24.80;1.00
14405;DHT22;14983;50.866;4.304;2022-07-23T10:37:25;24.30;1.00
14405;DHT22;14983;50.866;4.304;2022-07-23T10:40:14;24.20;1.00
14405;DHT22;14983;50.866;4.304;2022-07-23T10:42:44;24.70;1.00
14405;DHT22;14983;50.866;4.304;2022-07-23T10:45:29;24.60;1.00
14405;DHT22;14983;50.866;4.304;2022-07-23T10:48:12;24.80;1.00
14405;DHT22;14983;50.866;4.304;2022-07-23T10:50:39;24.90;1.00
14405;DHT22;14983;50.866;4.304;2022-07-23T10:53:14;25.00;1.00
14405;DHT22;14983;50.866;4.304;2022-07-23T10:55:52;25.00;1.00
14405;DHT22;14983;50.866;4.304;2022-07-23T10:58:47;25.40;1.00
14405;DHT22;14983;50.866;4.304;2022-07-23T11:01:34;25.40;1.00
14405;DHT22;14983;50.866;4.304;2022-07-23T11:04:02;25.40;1.00
14405;DHT22;14983;50.866;4.304;2022-07-23T11:07:06;25.50;1.00
14405;DHT22;14983;50.866;4.304;2022-07-23T11:09:40;25.60;1.00
14405;DHT22;14983;50.866;4.304;2022-07-23T11:12:34;25.60;1.00
14405;DHT22;14983;50.866;4.304;2022-07-23T11:15:07;25.90;1.00
14405;DHT22;14983;50.866;4.304;2022-07-23T11:17:36;26.10;1.00
14405;DHT22;14983;50.866;4.304;2022-07-23T11:20:20;26.00;1.00
14405;DHT22;14983;50.866;4.304;2022-07-23T11:22:49;25.90;1.00
14405;DHT22;14983;50.866;4.304;2022-07-23T11:25:33;26.00;1.00
14405;DHT22;14983;50.866;4.304;2022-07-23T11:28:18;26.10;1.00
14405;DHT22;14983;50.866;4.304;2022-07-23T11:30:46;26.00;1.00
14405;DHT22;14983;50.866;4.304;2022-07-23T11:33:19;25.90;1.00
14405;DHT22;14983;50.866;4.304;2022-07-23T11:35:48;25.90;1.00
14405;DHT22;14983;50.866;4.304;2022-07-23T11:38:17;26.20;1.00
14405;DHT22;14983;50.866;4.304;2022-07-23T11:40:46;26.10;1.00
14405;DHT22;14983;50.866;4.304;2022-07-23T11:43:13;25.70;1.00
14405;DHT22;14983;50.866;4.304;2022-07-23T11:45:44;25.70;1.00
14405;DHT22;14983;50.866;4.304;2022-07-23T11:48:18;25.90;1.00
14405;DHT22;14983;50.866;4.304;2022-07-23T11:50:46;26.10;1.00
14405;DHT22;14983;50.866;4.304;2022-07-23T11:53:21;26.30;1.00
14405;DHT22;14983;50.866;4.304;2022-07-23T11:55:48;25.70;1.00
14405;DHT22;14983;50.866;4.304;2022-07-23T11:58:15;25.80;1.00
14405;DHT22;14983;50.866;4.304;2022-07-23T12:00:44;25.50;1.00
14405;DHT22;14983;50.866;4.304;2022-07-23T12:03:11;25.30;1.00
14405;DHT22;14983;50.866;4.304;2022-07-23T12:05:39;25.90;1.00
14405;DHT22;14983;50.866;4.304;2022-07-23T12:08:08;25.90;1.00
14405;DHT22;14983;50.866;4.304;2022-07-23T12:10:49;25.80;1.00
14405;DHT22;14983;50.866;4.304;2022-07-23T12:13:18;26.60;1.00
14405;DHT22;14983;50.866;4.304;2022-07-23T12:15:50;27.70;1.00
14405;DHT22;14983;50.866;4.304;2022-07-23T12:18:19;28.50;1.00
14405;DHT22;14983;50.866;4.304;2022-07-23T12:20:48;29.50;99.90
14405;DHT22;14983;50.866;4.304;2022-07-23T12:23:18;28.50;99.90
14405;DHT22;14983;50.866;4.304;2022-07-23T12:25:52;27.80;99.90
14405;DHT22;14983;50.866;4.304;2022-07-23T12:28:20;27.40;99.90
14405;DHT22;14983;50.866;4.304;2022-07-23T12:30:50;27.30;99.90
14405;DHT22;14983;50.866;4.304;2022-07-23T12:33:24;27.50;99.90
14405;DHT22;14983;50.866;4.304;2022-07-23T12:35:53;27.50;99.90
14405;DHT22;14983;50.866;4.304;2022-07-23T12:38:22;28.10;99.90
14405;DHT22;14983;50.866;4.304;2022-07-23T12:40:51;28.60;99.90
14405;DHT22;14983;50.866;4.304;2022-07-23T12:43:30;29.10;99.90
14405;DHT22;14983;50.866;4.304;2022-07-23T12:46:05;29.30;99.90
14405;DHT22;14983;50.866;4.304;2022-07-23T12:48:33;30.70;99.90
14405;DHT22;14983;50.866;4.304;2022-07-23T12:51:03;31.20;99.90
14405;DHT22;14983;50.866;4.304;2022-07-23T12:53:32;29.60;99.90
14405;DHT22;14983;50.866;4.304;2022-07-23T12:56:04;29.70;99.90
14405;DHT22;14983;50.866;4.304;2022-07-23T12:58:43;29.60;99.90
14405;DHT22;14983;50.866;4.304;2022-07-23T13:01:23;29.90;99.90
14405;DHT22;14983;50.866;4.304;2022-07-23T13:04:00;29.50;99.90
14405;DHT22;14983;50.866;4.304;2022-07-23T13:06:29;29.40;99.90
14405;DHT22;14983;50.866;4.304;2022-07-23T13:08:56;28.60;99.90
14405;DHT22;14983;50.866;4.304;2022-07-23T13:11:23;28.20;99.90
14405;DHT22;14983;50.866;4.304;2022-07-23T13:13:51;27.90;99.90
14405;DHT22;14983;50.866;4.304;2022-07-23T13:16:20;28.80;99.90
14405;DHT22;14983;50.866;4.304;2022-07-23T13:18:47;29.70;99.90
14405;DHT22;14983;50.866;4.304;2022-07-23T13:21:14;29.40;99.90
14405;DHT22;14983;50.866;4.304;2022-07-23T13:23:42;29.70;99.90
14405;DHT22;14983;50.866;4.304;2022-07-23T13:26:09;29.80;99.90
14405;DHT22;14983;50.866;4.304;2022-07-23T13:28:36;30.70;99.90
14405;DHT22;14983;50.866;4.304;2022-07-23T13:31:04;30.60;99.90
14405;DHT22;14983;50.866;4.304;2022-07-23T13:33:32;31.00;99.90
14405;DHT22;14983;50.866;4.304;2022-07-23T13:35:59;30.20;99.90
14405;DHT22;14983;50.866;4.304;2022-07-23T13:38:26;31.10;99.90
14405;DHT22;14983;50.866;4.304;2022-07-23T13:40:54;30.80;99.90
14405;DHT22;14983;50.866;4.304;2022-07-23T13:43:23;30.20;99.90
14405;DHT22;14983;50.866;4.304;2022-07-23T13:45:52;28.70;99.90
14405;DHT22;14983;50.866;4.304;2022-07-23T13:48:20;28.90;99.90
14405;DHT22;14983;50.866;4.304;2022-07-23T13:50:50;29.90;99.90
14405;DHT22;14983;50.866;4.304;2022-07-23T13:53:18;29.60;99.90
14405;DHT22;14983;50.866;4.304;2022-07-23T13:55:46;30.20;99.90
14405;DHT22;14983;50.866;4.304;2022-07-23T13:58:14;29.70;99.90
14405;DHT22;14983;50.866;4.304;2022-07-23T14:00:44;30.70;99.90
14405;DHT22;14983;50.866;4.304;2022-07-23T14:03:12;29.80;99.90
14405;DHT22;14983;50.866;4.304;2022-07-23T14:05:41;29.00;99.90
14405;DHT22;14983;50.866;4.304;2022-07-23T14:08:10;29.20;99.90
14405;DHT22;14983;50.866;4.304;2022-07-23T14:10:37;29.70;99.90
14405;DHT22;14983;50.866;4.304;2022-07-23T14:13:04;29.80;99.90
14405;DHT22;14983;50.866;4.304;2022-07-23T14:15:32;29.90;99.90
14405;DHT22;14983;50.866;4.304;2022-07-23T14:17:59;29.50;99.90
14405;DHT22;14983;50.866;4.304;2022-07-23T14:20:26;29.70;99.90
14405;DHT22;14983;50.866;4.304;2022-07-23T14:22:53;29.70;99.90
14405;DHT22;14983;50.866;4.304;2022-07-23T14:25:29;29.70;99.90
14405;DHT22;14983;50.866;4.304;2022-07-23T14:28:02;30.50;99.90
14405;DHT22;14983;50.866;4.304;2022-07-23T14:30:30;30.90;99.90
14405;DHT22;14983;50.866;4.304;2022-07-23T14:33:02;31.40;99.90
14405;DHT22;14983;50.866;4.304;2022-07-23T14:35:30;31.40;99.90
14405;DHT22;14983;50.866;4.304;2022-07-23T14:37:57;31.60;99.90
14405;DHT22;14983;50.866;4.304;2022-07-23T14:40:24;31.00;99.90
14405;DHT22;14983;50.866;4.304;2022-07-23T14:42:52;31.10;99.90
14405;DHT22;14983;50.866;4.304;2022-07-23T14:45:19;30.60;99.90
14405;DHT22;14983;50.866;4.304;2022-07-23T14:47:46;30.30;99.90
14405;DHT22;14983;50.866;4.304;2022-07-23T14:50:14;30.50;99.90
14405;DHT22;14983;50.866;4.304;2022-07-23T14:52:41;30.30;99.90
14405;DHT22;14983;50.866;4.304;2022-07-23T14:55:09;31.00;99.90
14405;DHT22;14983;50.866;4.304;2022-07-23T14:57:36;30.70;99.90
14405;DHT22;14983;50.866;4.304;2022-07-23T15:00:05;31.30;99.90
14405;DHT22;14983;50.866;4.304;2022-07-23T15:02:33;30.80;99.90
14405;DHT22;14983;50.866;4.304;2022-07-23T15:05:00;29.80;99.90
14405;DHT22;14983;50.866;4.304;2022-07-23T15:07:28;29.80;99.90
14405;DHT22;14983;50.866;4.304;2022-07-23T15:09:55;30.40;99.90
14405;DHT22;14983;50.866;4.304;2022-07-23T15:12:22;30.50;99.90
14405;DHT22;14983;50.866;4.304;2022-07-23T15:14:50;31.10;99.90
14405;DHT22;14983;50.866;4.304;2022-07-23T15:17:19;32.30;99.90
14405;DHT22;14983;50.866;4.304;2022-07-23T15:19:46;33.40;99.90
14405;DHT22;14983;50.866;4.304;2022-07-23T15:22:13;34.10;99.90
14405;DHT22;14983;50.866;4.304;2022-07-23T15:24:40;34.20;99.90
14405;DHT22;14983;50.866;4.304;2022-07-23T15:27:07;33.90;99.90
14405;DHT22;14983;50.866;4.304;2022-07-23T15:29:34;33.60;99.90
14405;DHT22;14983;50.866;4.304;2022-07-23T15:32:02;32.50;99.90
14405;DHT22;14983;50.866;4.304;2022-07-23T15:34:32;33.10;99.90
14405;DHT22;14983;50.866;4.304;2022-07-23T15:37:02;32.90;99.90
14405;DHT22;14983;50.866;4.304;2022-07-23T15:39:30;32.60;99.90
14405;DHT22;14983;50.866;4.304;2022-07-23T15:41:58;31.70;99.90
14405;DHT22;14983;50.866;4.304;2022-07-23T15:44:25;31.80;99.90
14405;DHT22;14983;50.866;4.304;2022-07-23T15:46:52;31.90;99.90
14405;DHT22;14983;50.866;4.304;2022-07-23T15:49:19;31.70;99.90
14405;DHT22;14983;50.866;4.304;2022-07-23T15:51:48;31.40;99.90
14405;DHT22;14983;50.866;4.304;2022-07-23T15:54:15;31.30;99.90
14405;DHT22;14983;50.866;4.304;2022-07-23T15:56:42;31.40;99.90
14405;DHT22;14983;50.866;4.304;2022-07-23T15:59:09;31.70;99.90